Terminal Aerodrome Forecast
Issued by NWS

Home | Current Version | Previous Version | Graphics & Text | Print | Product List | Glossary On
Versions: 1 2 3 4 5 6 7 8 9 10 11 12 13 14 15 16 17 18 19 20 21 22 23 24 25 26 27 28 29 30 31 32
000
FTUS43 KLOT 141600 AAB
TAFDPA
TAF AMD
KDPA 141615Z 1416/1512 35014G22KT P6SM BKN020 OVC025
     FM141800 35014G22KT P6SM BKN020 OVC025
     FM142200 35014G22KT 2SM -SN SCT012 BKN018 OVC025
      TEMPO 1423/1502 1SM -SN SCT008 BKN012
     FM150200 35012G18KT P6SM VCSH BKN020
     FM150500 34011G16KT P6SM FEW030=

USA.gov is the U.S. government's official web portal to all federal, state and local government web resources and services.